Nearby METAR Reports

 

TNCA - Queen Beatrix, Lesser Antilles
Distance from station: 0 0km
Updated: 22/06/2018 02:00
NOT Current
Partly Cloudy
Partly Cloudy
 Wind from E
Wind: E 33 km/h
Temperature: 27°C
Heat Index: 30°C
Dew Point: 23°C
Humidity: 79%
Barometer: 1013 hPa
Clouds: Partly Cloudy
Visibility: 10 km
Cloud details: Partly Cloudy 549 m
2018/06/22 06:00 TNCA 220600Z 08018KT 9999 SCT018 27/23 Q1013 NOSIG
SVJC - Paraguana/Josefa, Venezuela
Distance from station: S 83km
Updated: 05/12/2017 15:00
NOT Current

 
2017/12/05 19:00 SVJC 051900Z NL
 
TNCC - Hato Air Curacao, Lesser Antilles
Distance from station: ESE 117km
Updated: 22/06/2018 03:00
Clear
Clear
 Wind from ESE
Wind: ESE 24 km/h
Temperature: 26°C
Dew Point: 23°C
Humidity: 84%
Barometer: 1013 hPa
Clouds: Clear
Visibility: 10 km
2018/06/22 07:00 TNCC 220700Z AUTO 11013KT 9999 NCD 26/23 Q1013 NOSIG
SVCR - Coro/Jose Leonar, Venezuela
Distance from station: SSE 126km
Updated: 21/06/2018 22:00
NOT Current
Few Clouds
Few Clouds
 Wind from varies
Wind: varies 0 km/h
Temperature: 28°C
Heat Index: 30°C
Dew Point: 22°C
Humidity: 70%
Barometer: 1012 hPa
Clouds: Few Clouds
Visibility: 10 km
Cloud details: Few Clouds 396 m
2018/06/22 02:00 SVCR 220200Z /////KT 9999 FEW013 28/22 Q1012
 
TNCB - Bonaire/Flamingo, Lesser Antilles
Distance from station: ESE 191km
Updated: 22/06/2018 02:55
Few Clouds
Few Clouds
 Wind from E
Wind: E 19 km/h
Temperature: 26°C
Dew Point: 23°C
Humidity: 84%
Barometer: 1013 hPa
Clouds: Few Clouds
Visibility: 10 km
Cloud details: Few Clouds 457 m
2018/06/22 06:55 TNCB 220655Z AUTO 09010KT 9999 // FEW015/// 26/23 Q1013 RE//
SVMC - Maracaibo/La Chi, Venezuela
Distance from station: SW 285km
Updated: 22/06/2018 02:00
NOT Current

 
Visibility: 4.8 miles
2018/06/22 06:00 SVMC 220600Z 3001KT 9999 BKN013 26/26 Q1012